createdAt,value
2018-08-12T00:00:04.032Z,93.40
2018-08-12T00:02:30.939Z,93.70
2018-08-12T00:04:58.020Z,93.50
2018-08-12T00:07:25.751Z,93.40
2018-08-12T00:09:52.664Z,93.60
2018-08-12T00:12:19.583Z,93.70
2018-08-12T00:14:46.522Z,94.30
2018-08-12T00:17:13.422Z,94.90
2018-08-12T00:19:40.343Z,96.20
2018-08-12T00:22:07.211Z,96.70
2018-08-12T00:24:34.084Z,96.50
2018-08-12T00:27:00.996Z,96.40
2018-08-12T00:29:27.907Z,96.30
2018-08-12T00:31:54.772Z,96.00
2018-08-12T00:34:21.635Z,95.90
2018-08-12T00:36:48.548Z,96.40
2018-08-12T00:39:15.416Z,96.20
2018-08-12T00:41:42.363Z,95.80
2018-08-12T00:44:09.465Z,95.30
2018-08-12T00:46:36.374Z,95.00
2018-08-12T00:49:03.411Z,95.50
2018-08-12T00:51:30.407Z,95.50
2018-08-12T00:53:57.271Z,95.50
2018-08-12T00:56:24.196Z,95.30
2018-08-12T00:58:51.074Z,95.30
2018-08-12T01:01:17.936Z,96.00
2018-08-12T01:03:45.987Z,95.80
2018-08-12T01:06:14.105Z,96.20
2018-08-12T01:08:41.336Z,96.20
2018-08-12T01:11:08.257Z,96.90
2018-08-12T01:13:35.151Z,96.60
2018-08-12T01:16:02.075Z,96.50
2018-08-12T01:18:29.104Z,96.60
2018-08-12T01:20:56.019Z,96.50
2018-08-12T01:23:22.935Z,96.60
2018-08-12T01:25:49.803Z,96.80
2018-08-12T01:28:16.720Z,96.60
2018-08-12T01:30:43.675Z,96.60
2018-08-12T01:33:10.544Z,96.30
2018-08-12T01:35:37.463Z,96.30
2018-08-12T01:38:04.358Z,96.90
2018-08-12T01:40:31.275Z,96.60
2018-08-12T01:42:58.140Z,96.30
2018-08-12T01:45:25.055Z,96.70
2018-08-12T01:47:51.967Z,96.50
2018-08-12T01:50:19.571Z,96.80
2018-08-12T01:52:46.516Z,97.10
2018-08-12T01:55:13.758Z,97.50
2018-08-12T01:57:40.632Z,97.60
2018-08-12T02:00:09.290Z,97.70
2018-08-12T02:02:36.535Z,97.60
2018-08-12T02:05:03.888Z,97.70
2018-08-12T02:07:30.806Z,97.70
2018-08-12T02:09:57.741Z,97.70
2018-08-12T02:12:24.619Z,97.30
2018-08-12T02:14:51.543Z,97.10
2018-08-12T02:17:18.412Z,97.00
2018-08-12T02:19:45.351Z,96.80
2018-08-12T02:22:12.270Z,96.70
2018-08-12T02:24:39.162Z,96.40
2018-08-12T02:27:06.027Z,96.40
2018-08-12T02:29:32.932Z,96.40
2018-08-12T02:31:59.807Z,96.30
2018-08-12T02:34:26.758Z,96.10
2018-08-12T02:36:53.754Z,96.00
2018-08-12T02:39:20.619Z,95.90
2018-08-12T02:41:47.575Z,96.00
2018-08-12T02:44:14.444Z,96.00
2018-08-12T02:46:41.330Z,96.20
2018-08-12T02:49:08.254Z,96.50
2018-08-12T02:51:35.148Z,96.90
2018-08-12T02:54:02.088Z,97.20
2018-08-12T02:56:28.951Z,97.50
2018-08-12T02:58:55.851Z,97.40
2018-08-12T03:01:22.767Z,98.00
2018-08-12T03:03:49.644Z,98.20
2018-08-12T03:06:16.884Z,98.60
2018-08-12T03:08:43.779Z,98.50
2018-08-12T03:11:10.648Z,98.60
2018-08-12T03:13:37.883Z,98.70
2018-08-12T03:16:04.824Z,99.00
2018-08-12T03:18:31.737Z,99.20
2018-08-12T03:20:58.653Z,99.30
2018-08-12T03:23:25.540Z,99.40
2018-08-12T03:25:52.452Z,99.80
2018-08-12T03:28:19.323Z,99.80
2018-08-12T03:30:46.245Z,99.90
2018-08-12T03:33:13.119Z,99.90
2018-08-12T03:35:39.984Z,99.90
2018-08-12T03:38:06.980Z,99.90
2018-08-12T03:40:33.864Z,99.90
2018-08-12T03:43:00.743Z,99.90
2018-08-12T03:45:27.666Z,99.90
2018-08-12T03:47:54.780Z,99.90
2018-08-12T03:50:21.651Z,99.90
2018-08-12T03:52:48.556Z,99.90
2018-08-12T03:55:15.467Z,99.90
2018-08-12T03:57:42.370Z,99.90
2018-08-12T04:00:12.668Z,99.90
2018-08-12T04:02:39.588Z,99.90
2018-08-12T04:05:06.527Z,99.90
2018-08-12T04:07:33.423Z,99.90
2018-08-12T04:10:00.291Z,99.90
2018-08-12T04:12:27.197Z,99.90
2018-08-12T04:14:54.070Z,99.90
2018-08-12T04:17:20.984Z,99.90
2018-08-12T04:19:47.847Z,99.90
2018-08-12T04:22:14.751Z,99.90
2018-08-12T04:24:41.619Z,99.90
2018-08-12T04:27:08.522Z,99.90
2018-08-12T04:29:35.395Z,99.90
2018-08-12T04:32:02.307Z,99.90
2018-08-12T04:34:29.176Z,99.90
2018-08-12T04:36:56.087Z,99.90
2018-08-12T04:39:22.983Z,99.90
2018-08-12T04:41:49.894Z,99.90
2018-08-12T04:44:17.071Z,99.90
2018-08-12T04:46:43.970Z,99.90
2018-08-12T04:49:10.834Z,99.90
2018-08-12T04:51:38.062Z,99.90
2018-08-12T04:54:05.322Z,99.90
2018-08-12T04:56:32.279Z,99.90
2018-08-12T04:58:59.192Z,99.90
2018-08-12T05:01:26.114Z,99.90
2018-08-12T05:03:53.271Z,99.90
2018-08-12T05:06:20.144Z,99.90
2018-08-12T05:08:47.055Z,99.90
2018-08-12T05:11:13.967Z,99.90
2018-08-12T05:13:40.827Z,99.90
2018-08-12T05:16:07.832Z,99.80
2018-08-12T05:18:35.003Z,99.40
2018-08-12T05:21:01.950Z,99.00
2018-08-12T05:23:29.034Z,98.90
2018-08-12T05:25:56.022Z,98.90
2018-08-12T05:28:22.932Z,97.90
2018-08-12T05:30:50.064Z,97.10
2018-08-12T05:33:16.991Z,95.90
2018-08-12T05:35:43.859Z,96.20
2018-08-12T05:38:11.107Z,96.60
2018-08-12T05:40:37.978Z,94.20
2018-08-12T05:43:05.203Z,93.60
2018-08-12T05:45:32.076Z,93.70
2018-08-12T05:47:58.951Z,93.50
2018-08-12T05:50:25.854Z,91.90
2018-08-12T05:52:53.391Z,91.80
2018-08-12T05:55:20.255Z,90.50
2018-08-12T05:57:47.192Z,90.40
2018-08-12T06:00:15.055Z,89.70
2018-08-12T06:02:43.034Z,89.50
2018-08-12T06:05:10.227Z,87.90
2018-08-12T06:07:37.191Z,86.60
2018-08-12T06:10:04.452Z,84.00
2018-08-12T06:12:31.324Z,83.80
2018-08-12T06:14:58.191Z,78.90
2018-08-12T06:17:25.135Z,75.40
2018-08-12T06:19:51.998Z,72.10
2018-08-12T06:22:18.946Z,70.10
2018-08-12T06:24:45.887Z,68.30
2018-08-12T06:27:12.764Z,66.70
2018-08-12T06:29:39.643Z,64.50
2018-08-12T06:32:06.548Z,60.70
2018-08-12T06:34:33.409Z,60.80
2018-08-12T06:37:00.324Z,60.90
2018-08-12T06:39:27.183Z,60.50
2018-08-12T06:41:54.099Z,59.40
2018-08-12T06:44:20.964Z,58.70
2018-08-12T06:46:47.823Z,59.70
2018-08-12T06:49:14.727Z,57.40
2018-08-12T06:51:41.689Z,57.70
2018-08-12T06:54:08.571Z,56.50
2018-08-12T06:56:35.499Z,55.30
2018-08-12T06:59:02.358Z,55.40
2018-08-12T07:01:29.564Z,54.10
2018-08-12T07:03:56.484Z,54.90
2018-08-12T07:06:23.559Z,53.70
2018-08-12T07:08:50.458Z,52.70
2018-08-12T07:11:17.639Z,52.20
2018-08-12T07:13:44.587Z,50.70
2018-08-12T07:16:11.503Z,49.50
2018-08-12T07:18:38.436Z,49.10
2018-08-12T07:21:05.299Z,49.60
2018-08-12T07:23:32.158Z,48.70
2018-08-12T07:25:59.060Z,50.10
2018-08-12T07:28:25.926Z,50.40
2018-08-12T07:30:52.839Z,50.40
2018-08-12T07:33:19.702Z,50.90
2018-08-12T07:35:46.576Z,50.70
2018-08-12T07:38:13.511Z,51.30
2018-08-12T07:40:40.379Z,49.80
2018-08-12T07:43:07.288Z,50.90
2018-08-12T07:45:34.259Z,50.50
2018-08-12T07:48:01.131Z,51.30
2018-08-12T07:50:28.049Z,51.50
2018-08-12T07:52:54.994Z,49.60
2018-08-12T07:55:21.859Z,49.00
2018-08-12T07:57:48.787Z,48.20
2018-08-12T08:00:16.936Z,46.20
2018-08-12T08:02:43.803Z,45.90
2018-08-12T08:05:10.699Z,45.60
2018-08-12T08:07:37.934Z,44.60
2018-08-12T08:10:06.244Z,43.90
2018-08-12T08:12:33.179Z,43.70
2018-08-12T08:15:00.174Z,42.30
2018-08-12T08:17:27.048Z,40.60
2018-08-12T08:19:54.006Z,40.30
2018-08-12T08:22:20.943Z,40.40
2018-08-12T08:24:47.824Z,39.60
2018-08-12T08:27:14.759Z,37.70
2018-08-12T08:29:41.619Z,37.90
2018-08-12T08:32:08.591Z,38.10
2018-08-12T08:34:35.751Z,37.40
2018-08-12T08:37:02.667Z,36.90
2018-08-12T08:39:29.573Z,37.60
2018-08-12T08:41:56.463Z,37.80
2018-08-12T08:44:23.379Z,37.00
2018-08-12T08:46:50.300Z,37.00
2018-08-12T08:49:17.179Z,37.00
2018-08-12T08:51:44.507Z,37.70
2018-08-12T08:54:11.440Z,36.60
2018-08-12T08:56:38.322Z,37.60
2018-08-12T08:59:05.183Z,37.30
2018-08-12T09:01:32.085Z,36.90
2018-08-12T09:03:59.004Z,36.50
2018-08-12T09:06:25.865Z,36.10
2018-08-12T09:08:52.940Z,36.20
2018-08-12T09:11:19.678Z,35.10
2018-08-12T09:13:46.539Z,35.30
2018-08-12T09:16:13.503Z,35.70
2018-08-12T09:18:40.376Z,35.60
2018-08-12T09:21:07.287Z,35.80
2018-08-12T09:23:34.197Z,35.80
2018-08-12T09:26:01.072Z,35.00
2018-08-12T09:28:28.003Z,33.80
2018-08-12T09:30:54.867Z,34.40
2018-08-12T09:33:21.776Z,34.00
2018-08-12T09:35:48.691Z,34.10
2018-08-12T09:38:15.866Z,34.10
2018-08-12T09:40:43.258Z,34.30
2018-08-12T09:43:10.221Z,34.50
2018-08-12T09:45:37.057Z,34.00
2018-08-12T09:48:04.090Z,33.80
2018-08-12T09:50:30.999Z,33.50
2018-08-12T09:52:57.863Z,33.00
2018-08-12T09:55:24.766Z,32.90
2018-08-12T09:57:51.691Z,32.40
2018-08-12T10:00:24.418Z,32.30
2018-08-12T10:02:52.617Z,31.70
2018-08-12T10:05:19.670Z,31.90
2018-08-12T10:07:46.764Z,31.60
2018-08-12T10:10:14.015Z,31.40
2018-08-12T10:12:41.647Z,31.30
2018-08-12T10:15:08.519Z,31.80
2018-08-12T10:17:36.431Z,32.00
2018-08-12T10:20:03.730Z,31.50
2018-08-12T10:22:30.692Z,31.80
2018-08-12T10:24:57.610Z,31.20
2018-08-12T10:27:24.892Z,32.10
2018-08-12T10:29:51.763Z,31.70
2018-08-12T10:32:18.676Z,31.00
2018-08-12T10:34:46.140Z,31.40
2018-08-12T10:37:13.016Z,30.50
2018-08-12T10:39:39.932Z,31.10
2018-08-12T10:42:06.815Z,31.30
2018-08-12T10:44:33.728Z,31.70
2018-08-12T10:47:00.600Z,32.10
2018-08-12T10:49:27.507Z,31.80
2018-08-12T10:51:54.756Z,30.60
2018-08-12T10:54:21.708Z,30.40
2018-08-12T10:56:48.624Z,30.50
2018-08-12T10:59:15.630Z,30.50
2018-08-12T11:01:42.540Z,30.50
2018-08-12T11:04:09.503Z,30.00
2018-08-12T11:06:36.650Z,30.80
2018-08-12T11:09:05.308Z,30.80
2018-08-12T11:11:32.219Z,30.70
2018-08-12T11:13:59.088Z,29.90
2018-08-12T11:16:26.004Z,29.50
2018-08-12T11:18:52.865Z,29.80
2018-08-12T11:21:19.811Z,29.60
2018-08-12T11:23:46.742Z,30.00
2018-08-12T11:26:13.687Z,29.60
2018-08-12T11:28:40.628Z,30.30
2018-08-12T11:31:07.495Z,29.10
2018-08-12T11:33:34.410Z,29.30
2018-08-12T11:36:01.286Z,29.00
2018-08-12T11:38:28.155Z,28.30
2018-08-12T11:40:55.068Z,29.00
2018-08-12T11:43:21.923Z,29.80
2018-08-12T11:45:48.789Z,30.20
2018-08-12T11:48:15.712Z,29.40
2018-08-12T11:50:42.580Z,29.20
2018-08-12T11:53:09.486Z,29.40
2018-08-12T11:55:36.907Z,29.30
2018-08-12T11:58:04.036Z,28.90
2018-08-12T12:00:31.339Z,28.30
2018-08-12T12:02:58.246Z,28.80
2018-08-12T12:05:25.835Z,28.70
2018-08-12T12:07:52.755Z,28.50
2018-08-12T12:10:21.217Z,28.40
2018-08-12T12:12:49.387Z,28.60
2018-08-12T12:15:16.757Z,29.10
2018-08-12T12:17:44.170Z,28.70
2018-08-12T12:20:12.043Z,28.40
2018-08-12T12:22:39.812Z,28.20
2018-08-12T12:25:08.007Z,28.40
2018-08-12T12:27:35.123Z,27.90
2018-08-12T12:30:02.116Z,28.30
2018-08-12T12:32:28.983Z,28.30
2018-08-12T12:34:55.876Z,28.40
2018-08-12T12:37:22.831Z,28.30
2018-08-12T12:39:49.743Z,28.10
2018-08-12T12:42:16.612Z,28.40
2018-08-12T12:44:43.648Z,29.30
2018-08-12T12:47:10.514Z,29.30
2018-08-12T12:49:37.474Z,29.20
2018-08-12T12:52:04.340Z,29.20
2018-08-12T12:54:31.206Z,29.50
2018-08-12T12:56:58.099Z,28.90
2018-08-12T12:59:24.972Z,28.60
2018-08-12T13:01:51.899Z,28.50
2018-08-12T13:04:18.767Z,28.40
2018-08-12T13:06:45.672Z,28.70
2018-08-12T13:09:13.343Z,28.00
2018-08-12T13:11:40.452Z,28.40
2018-08-12T13:14:07.556Z,28.90
2018-08-12T13:16:34.648Z,28.50
2018-08-12T13:19:01.512Z,29.00
2018-08-12T13:21:28.428Z,29.30
2018-08-12T13:23:55.300Z,28.70
2018-08-12T13:26:22.311Z,28.40
2018-08-12T13:28:49.178Z,27.60
2018-08-12T13:31:16.622Z,26.70
2018-08-12T13:33:43.523Z,26.90
2018-08-12T13:36:10.383Z,27.60
2018-08-12T13:38:37.333Z,27.20
2018-08-12T13:41:04.203Z,28.10
2018-08-12T13:43:31.126Z,27.70
2018-08-12T13:45:58.011Z,28.10
2018-08-12T13:48:24.920Z,28.00
2018-08-12T13:50:51.862Z,27.60
2018-08-12T13:53:18.773Z,28.00
2018-08-12T13:55:45.767Z,27.80
2018-08-12T13:58:12.636Z,27.60
2018-08-12T14:00:39.505Z,27.10
2018-08-12T14:03:06.415Z,27.30
2018-08-12T14:05:33.279Z,27.60
2018-08-12T14:08:00.191Z,28.40
2018-08-12T14:10:27.199Z,28.30
2018-08-12T14:12:54.114Z,28.30
2018-08-12T14:15:21.016Z,28.20
2018-08-12T14:17:48.844Z,28.40
2018-08-12T14:20:17.155Z,28.90
2018-08-12T14:22:44.018Z,28.80
2018-08-12T14:25:11.175Z,28.80
2018-08-12T14:27:39.008Z,28.50
2018-08-12T14:30:07.936Z,28.60
2018-08-12T14:32:34.911Z,27.80
2018-08-12T14:35:01.776Z,27.70
2018-08-12T14:37:28.719Z,27.80
2018-08-12T14:39:55.580Z,27.40
2018-08-12T14:42:22.490Z,26.70
2018-08-12T14:44:49.411Z,27.10
2018-08-12T14:47:16.279Z,26.90
2018-08-12T14:49:43.140Z,26.60
2018-08-12T14:52:10.040Z,26.40
2018-08-12T14:54:36.911Z,27.10
2018-08-12T14:57:03.815Z,26.70
2018-08-12T14:59:30.919Z,27.00
2018-08-12T15:01:57.788Z,26.60
2018-08-12T15:04:24.823Z,25.90
2018-08-12T15:06:51.735Z,26.30
2018-08-12T15:09:18.607Z,25.90
2018-08-12T15:11:45.582Z,26.20
2018-08-12T15:14:12.488Z,25.90
2018-08-12T15:16:39.399Z,25.40
2018-08-12T15:19:06.331Z,25.10
2018-08-12T15:21:33.591Z,25.60
2018-08-12T15:24:00.463Z,25.90
2018-08-12T15:26:27.367Z,25.90
2018-08-12T15:28:54.235Z,26.20
2018-08-12T15:31:21.149Z,25.70
2018-08-12T15:33:48.063Z,26.00
2018-08-12T15:36:14.979Z,25.80
2018-08-12T15:38:41.931Z,26.00
2018-08-12T15:41:08.819Z,26.10
2018-08-12T15:43:35.675Z,25.80
2018-08-12T15:46:02.624Z,26.00
2018-08-12T15:48:29.539Z,26.10
2018-08-12T15:50:56.467Z,26.60
2018-08-12T15:53:23.340Z,27.10
2018-08-12T15:55:50.235Z,27.20
2018-08-12T15:58:17.166Z,27.60
2018-08-12T16:00:44.259Z,27.80
2018-08-12T16:03:11.163Z,28.30
2018-08-12T16:05:38.351Z,27.30
2018-08-12T16:08:05.271Z,27.40
2018-08-12T16:10:32.137Z,27.60
2018-08-12T16:12:59.003Z,27.50
2018-08-12T16:15:25.982Z,27.60
2018-08-12T16:17:52.900Z,27.90
2018-08-12T16:20:19.811Z,27.80
2018-08-12T16:22:46.745Z,28.00
2018-08-12T16:25:15.355Z,28.70
2018-08-12T16:27:42.694Z,28.80
2018-08-12T16:30:10.523Z,28.80
2018-08-12T16:32:37.452Z,29.30
2018-08-12T16:35:04.602Z,29.60
2018-08-12T16:37:31.494Z,29.70
2018-08-12T16:39:58.404Z,30.00
2018-08-12T16:42:25.322Z,30.00
2018-08-12T16:44:52.543Z,30.30
2018-08-12T16:47:19.452Z,30.00
2018-08-12T16:49:46.411Z,30.40
2018-08-12T16:52:13.263Z,30.00
2018-08-12T16:54:40.217Z,31.00
2018-08-12T16:57:07.083Z,30.90
2018-08-12T16:59:34.084Z,31.60
2018-08-12T17:02:00.948Z,31.30
2018-08-12T17:04:28.017Z,31.80
2018-08-12T17:06:54.910Z,32.20
2018-08-12T17:09:21.707Z,32.80
2018-08-12T17:11:48.620Z,33.20
2018-08-12T17:14:15.488Z,33.70
2018-08-12T17:16:42.503Z,33.60
2018-08-12T17:19:09.683Z,33.30
2018-08-12T17:21:36.564Z,33.00
2018-08-12T17:24:03.483Z,32.90
2018-08-12T17:26:30.396Z,33.80
2018-08-12T17:28:57.266Z,33.50
2018-08-12T17:31:24.166Z,33.60
2018-08-12T17:33:51.071Z,33.30
2018-08-12T17:36:17.984Z,33.40
2018-08-12T17:38:44.894Z,34.20
2018-08-12T17:41:11.792Z,34.20
2018-08-12T17:43:38.703Z,34.80
2018-08-12T17:46:05.721Z,34.40
2018-08-12T17:48:32.624Z,34.10
2018-08-12T17:50:59.523Z,35.00
2018-08-12T17:53:26.392Z,35.80
2018-08-12T17:55:53.583Z,35.60
2018-08-12T17:58:20.500Z,36.00
2018-08-12T18:00:47.395Z,35.90
2018-08-12T18:03:14.589Z,36.00
2018-08-12T18:05:41.464Z,36.60
2018-08-12T18:08:08.386Z,36.90
2018-08-12T18:10:35.266Z,37.50
2018-08-12T18:13:02.187Z,37.20
2018-08-12T18:15:29.060Z,37.40
2018-08-12T18:17:55.952Z,37.40
2018-08-12T18:20:22.863Z,37.60
2018-08-12T18:22:49.747Z,37.60
2018-08-12T18:25:16.647Z,38.50
2018-08-12T18:27:43.531Z,38.20
2018-08-12T18:30:11.686Z,39.20
2018-08-12T18:32:38.583Z,39.40
2018-08-12T18:35:06.335Z,39.20
2018-08-12T18:37:33.475Z,38.90
2018-08-12T18:40:00.395Z,39.00
2018-08-12T18:42:27.267Z,38.90
2018-08-12T18:44:54.183Z,38.70
2018-08-12T18:47:21.176Z,38.80
2018-08-12T18:49:48.367Z,38.70
2018-08-12T18:52:15.245Z,39.20
2018-08-12T18:54:42.159Z,39.20
2018-08-12T18:57:09.055Z,39.10
2018-08-12T18:59:36.019Z,39.10
2018-08-12T19:02:03.232Z,39.40
2018-08-12T19:04:30.142Z,39.50
2018-08-12T19:06:57.011Z,39.60
2018-08-12T19:09:23.919Z,40.20
2018-08-12T19:11:50.880Z,40.30
2018-08-12T19:14:17.742Z,40.10
2018-08-12T19:16:44.663Z,39.70
2018-08-12T19:19:11.734Z,40.00
2018-08-12T19:21:38.652Z,40.30
2018-08-12T19:24:05.515Z,40.40
2018-08-12T19:26:32.432Z,40.70
2018-08-12T19:28:59.488Z,40.30
2018-08-12T19:31:26.312Z,40.20
2018-08-12T19:33:53.219Z,40.40
2018-08-12T19:36:20.110Z,40.40
2018-08-12T19:38:46.976Z,40.50
2018-08-12T19:41:13.941Z,40.60
2018-08-12T19:43:40.813Z,40.90
2018-08-12T19:46:08.015Z,40.90
2018-08-12T19:48:34.963Z,40.60
2018-08-12T19:51:01.872Z,40.50
2018-08-12T19:53:28.880Z,40.40
2018-08-12T19:55:56.016Z,40.60
2018-08-12T19:58:23.090Z,40.90
2018-08-12T20:00:50.049Z,40.90
2018-08-12T20:03:16.895Z,41.90
2018-08-12T20:05:43.867Z,41.10
2018-08-12T20:08:10.707Z,41.10
2018-08-12T20:10:37.591Z,40.80
2018-08-12T20:13:05.593Z,41.10
2018-08-12T20:15:32.483Z,41.30
2018-08-12T20:17:59.391Z,41.50
2018-08-12T20:20:26.264Z,41.60
2018-08-12T20:22:53.263Z,41.30
2018-08-12T20:25:20.139Z,41.60
2018-08-12T20:27:47.051Z,41.60
2018-08-12T20:30:14.080Z,41.60
2018-08-12T20:32:41.623Z,41.40
2018-08-12T20:35:08.931Z,42.10
2018-08-12T20:37:35.803Z,41.90
2018-08-12T20:40:03.178Z,41.90
2018-08-12T20:42:30.123Z,41.30
2018-08-12T20:44:56.999Z,41.20
2018-08-12T20:47:23.975Z,41.20
2018-08-12T20:49:50.834Z,41.10
2018-08-12T20:52:17.752Z,41.00
2018-08-12T20:54:44.872Z,40.80
2018-08-12T20:57:11.783Z,40.80
2018-08-12T20:59:38.652Z,40.80
2018-08-12T21:02:05.588Z,40.70
2018-08-12T21:04:32.455Z,40.80
2018-08-12T21:06:59.382Z,40.70
2018-08-12T21:09:26.263Z,40.80
2018-08-12T21:11:53.197Z,40.80
2018-08-12T21:14:20.088Z,40.70
2018-08-12T21:16:47.004Z,40.70
2018-08-12T21:19:13.921Z,40.70
2018-08-12T21:21:40.839Z,40.60
2018-08-12T21:24:07.719Z,40.40
2018-08-12T21:26:34.639Z,40.40
2018-08-12T21:29:01.511Z,40.30
2018-08-12T21:31:28.460Z,40.00
2018-08-12T21:33:55.403Z,39.90
2018-08-12T21:36:22.579Z,39.80
2018-08-12T21:38:49.483Z,39.70
2018-08-12T21:41:16.528Z,39.60
2018-08-12T21:43:43.394Z,39.60
2018-08-12T21:46:10.255Z,39.50
2018-08-12T21:48:37.184Z,39.50
2018-08-12T21:51:04.102Z,39.50
2018-08-12T21:53:31.240Z,40.10
2018-08-12T21:55:58.111Z,39.50
2018-08-12T21:58:25.299Z,39.50
2018-08-12T22:00:53.203Z,39.60
2018-08-12T22:03:20.146Z,39.60
2018-08-12T22:05:47.049Z,39.70
2018-08-12T22:08:14.296Z,39.80
2018-08-12T22:10:41.295Z,40.10
2018-08-12T22:13:09.164Z,40.10
2018-08-12T22:15:36.072Z,40.30
2018-08-12T22:18:03.018Z,40.30
2018-08-12T22:20:29.904Z,40.40
2018-08-12T22:22:56.782Z,40.60
2018-08-12T22:25:23.699Z,40.60
2018-08-12T22:27:50.608Z,40.90
2018-08-12T22:30:17.525Z,41.00
2018-08-12T22:32:44.519Z,41.00
2018-08-12T22:35:11.436Z,41.00
2018-08-12T22:37:38.611Z,41.00
2018-08-12T22:40:06.019Z,40.80
2018-08-12T22:42:33.025Z,40.70
2018-08-12T22:44:59.944Z,40.30
2018-08-12T22:47:26.810Z,40.00
2018-08-12T22:49:53.859Z,40.00
2018-08-12T22:52:20.775Z,39.90
2018-08-12T22:54:47.674Z,39.80
2018-08-12T22:57:14.579Z,39.80
2018-08-12T22:59:41.487Z,39.80
2018-08-12T23:02:08.427Z,39.90
2018-08-12T23:04:35.482Z,39.90
2018-08-12T23:07:02.363Z,40.00
2018-08-12T23:09:29.230Z,40.20
2018-08-12T23:11:56.139Z,40.10
2018-08-12T23:14:23.007Z,40.20
2018-08-12T23:16:55.827Z,40.30
2018-08-12T23:19:22.692Z,40.30
2018-08-12T23:21:49.615Z,40.50
2018-08-12T23:24:16.486Z,40.80
2018-08-12T23:26:43.407Z,40.50
2018-08-12T23:29:10.283Z,40.50
2018-08-12T23:31:37.200Z,40.60
2018-08-12T23:34:04.099Z,40.50
2018-08-12T23:36:30.991Z,40.60
2018-08-12T23:38:57.942Z,40.50
2018-08-12T23:41:24.803Z,40.50
2018-08-12T23:43:52.086Z,40.70
2018-08-12T23:46:18.946Z,41.10
2018-08-12T23:48:45.843Z,40.90
2018-08-12T23:51:12.702Z,41.00
2018-08-12T23:53:39.611Z,41.20
2018-08-12T23:56:06.483Z,41.50
2018-08-12T23:58:33.360Z,41.20
